sensor_id;sensor_type;location;lat;lon;timestamp;temperature;humidity
9824;DHT22;4951;50.778;7.196;2022-07-23T00:00:21;18.80;1.00
9824;DHT22;4951;50.778;7.196;2022-07-23T00:02:57;18.80;1.00
9824;DHT22;4951;50.778;7.196;2022-07-23T00:05:30;18.80;1.00
9824;DHT22;4951;50.778;7.196;2022-07-23T00:07:57;18.80;1.00
9824;DHT22;4951;50.778;7.196;2022-07-23T00:10:25;18.80;1.00
9824;DHT22;4951;50.778;7.196;2022-07-23T00:12:54;18.80;1.00
9824;DHT22;4951;50.778;7.196;2022-07-23T00:15:22;18.80;1.00
9824;DHT22;4951;50.778;7.196;2022-07-23T00:17:51;18.80;1.00
9824;DHT22;4951;50.778;7.196;2022-07-23T00:20:19;18.80;1.00
9824;DHT22;4951;50.778;7.196;2022-07-23T00:22:53;18.80;1.00
9824;DHT22;4951;50.778;7.196;2022-07-23T00:25:24;18.80;1.00
9824;DHT22;4951;50.778;7.196;2022-07-23T00:27:54;18.80;1.00
9824;DHT22;4951;50.778;7.196;2022-07-23T00:30:24;18.80;1.00
9824;DHT22;4951;50.778;7.196;2022-07-23T00:32:55;18.80;1.00
9824;DHT22;4951;50.778;7.196;2022-07-23T00:35:30;18.70;1.00
9824;DHT22;4951;50.778;7.196;2022-07-23T00:38:04;18.70;1.00
9824;DHT22;4951;50.778;7.196;2022-07-23T00:40:34;18.70;1.00
9824;DHT22;4951;50.778;7.196;2022-07-23T00:43:06;18.70;1.00
9824;DHT22;4951;50.778;7.196;2022-07-23T00:45:35;18.70;1.00
9824;DHT22;4951;50.778;7.196;2022-07-23T00:48:06;18.70;1.00
9824;DHT22;4951;50.778;7.196;2022-07-23T00:50:38;18.60;1.00
9824;DHT22;4951;50.778;7.196;2022-07-23T00:53:10;18.60;1.00
9824;DHT22;4951;50.778;7.196;2022-07-23T00:55:38;18.60;1.00
9824;DHT22;4951;50.778;7.196;2022-07-23T00:58:12;18.60;1.00
9824;DHT22;4951;50.778;7.196;2022-07-23T01:00:43;18.70;1.00
9824;DHT22;4951;50.778;7.196;2022-07-23T01:03:11;18.70;1.00
9824;DHT22;4951;50.778;7.196;2022-07-23T01:05:45;18.60;1.00
9824;DHT22;4951;50.778;7.196;2022-07-23T01:08:16;18.70;1.00
9824;DHT22;4951;50.778;7.196;2022-07-23T01:10:47;18.70;1.00
9824;DHT22;4951;50.778;7.196;2022-07-23T01:13:15;18.60;1.00
9824;DHT22;4951;50.778;7.196;2022-07-23T01:15:44;18.60;1.00
9824;DHT22;4951;50.778;7.196;2022-07-23T01:18:13;18.60;1.00
9824;DHT22;4951;50.778;7.196;2022-07-23T01:20:47;18.50;1.00
9824;DHT22;4951;50.778;7.196;2022-07-23T01:23:18;18.50;1.00
9824;DHT22;4951;50.778;7.196;2022-07-23T01:25:54;18.50;1.00
9824;DHT22;4951;50.778;7.196;2022-07-23T01:28:26;18.50;1.00
9824;DHT22;4951;50.778;7.196;2022-07-23T01:30:56;18.40;1.00
9824;DHT22;4951;50.778;7.196;2022-07-23T01:33:30;18.40;1.00
9824;DHT22;4951;50.778;7.196;2022-07-23T01:35:57;18.40;1.00
9824;DHT22;4951;50.778;7.196;2022-07-23T01:38:28;18.40;1.00
9824;DHT22;4951;50.778;7.196;2022-07-23T01:40:56;18.40;1.00
9824;DHT22;4951;50.778;7.196;2022-07-23T01:43:35;18.30;1.00
9824;DHT22;4951;50.778;7.196;2022-07-23T01:46:04;18.30;1.00
9824;DHT22;4951;50.778;7.196;2022-07-23T01:48:45;18.30;1.00
9824;DHT22;4951;50.778;7.196;2022-07-23T01:51:38;18.20;1.00
9824;DHT22;4951;50.778;7.196;2022-07-23T01:54:29;18.20;1.00
9824;DHT22;4951;50.778;7.196;2022-07-23T01:57:01;18.20;1.00
9824;DHT22;4951;50.778;7.196;2022-07-23T01:59:31;18.20;1.00
9824;DHT22;4951;50.778;7.196;2022-07-23T02:01:59;18.20;1.00
9824;DHT22;4951;50.778;7.196;2022-07-23T02:04:41;18.30;1.00
9824;DHT22;4951;50.778;7.196;2022-07-23T02:07:11;18.30;1.00
9824;DHT22;4951;50.778;7.196;2022-07-23T02:09:47;18.30;1.00
9824;DHT22;4951;50.778;7.196;2022-07-23T02:12:17;18.30;1.00
9824;DHT22;4951;50.778;7.196;2022-07-23T02:14:48;18.30;1.00
9824;DHT22;4951;50.778;7.196;2022-07-23T02:17:18;18.30;1.00
9824;DHT22;4951;50.778;7.196;2022-07-23T02:19:53;18.30;1.00
9824;DHT22;4951;50.778;7.196;2022-07-23T02:22:25;18.30;1.00
9824;DHT22;4951;50.778;7.196;2022-07-23T02:25:00;18.30;1.00
9824;DHT22;4951;50.778;7.196;2022-07-23T02:27:34;18.30;1.00
9824;DHT22;4951;50.778;7.196;2022-07-23T02:30:08;18.30;1.00
9824;DHT22;4951;50.778;7.196;2022-07-23T02:32:40;18.30;1.00
9824;DHT22;4951;50.778;7.196;2022-07-23T02:35:21;18.30;1.00
9824;DHT22;4951;50.778;7.196;2022-07-23T02:37:55;18.30;1.00
9824;DHT22;4951;50.778;7.196;2022-07-23T02:40:30;18.30;1.00
9824;DHT22;4951;50.778;7.196;2022-07-23T02:42:59;18.30;1.00
9824;DHT22;4951;50.778;7.196;2022-07-23T02:45:28;18.30;1.00
9824;DHT22;4951;50.778;7.196;2022-07-23T02:47:59;18.30;1.00
9824;DHT22;4951;50.778;7.196;2022-07-23T02:50:29;18.30;1.00
9824;DHT22;4951;50.778;7.196;2022-07-23T02:53:02;18.30;1.00
9824;DHT22;4951;50.778;7.196;2022-07-23T02:55:37;18.30;1.00
9824;DHT22;4951;50.778;7.196;2022-07-23T02:58:24;18.30;1.00
9824;DHT22;4951;50.778;7.196;2022-07-23T03:01:12;18.30;1.00
9824;DHT22;4951;50.778;7.196;2022-07-23T03:03:59;18.30;1.00
9824;DHT22;4951;50.778;7.196;2022-07-23T03:06:30;18.20;1.00
9824;DHT22;4951;50.778;7.196;2022-07-23T03:09:17;18.20;1.00
9824;DHT22;4951;50.778;7.196;2022-07-23T03:11:47;18.10;1.00
9824;DHT22;4951;50.778;7.196;2022-07-23T03:14:27;18.10;1.00
9824;DHT22;4951;50.778;7.196;2022-07-23T03:17:14;18.00;1.00
9824;DHT22;4951;50.778;7.196;2022-07-23T03:19:45;18.00;1.00
9824;DHT22;4951;50.778;7.196;2022-07-23T03:22:13;17.90;1.00
9824;DHT22;4951;50.778;7.196;2022-07-23T03:24:53;17.90;1.00
9824;DHT22;4951;50.778;7.196;2022-07-23T03:27:29;17.80;1.00
9824;DHT22;4951;50.778;7.196;2022-07-23T03:30:00;17.70;1.00
9824;DHT22;4951;50.778;7.196;2022-07-23T03:32:29;17.70;1.00
9824;DHT22;4951;50.778;7.196;2022-07-23T03:34:59;17.60;1.00
9824;DHT22;4951;50.778;7.196;2022-07-23T03:37:30;17.50;1.00
9824;DHT22;4951;50.778;7.196;2022-07-23T03:40:01;17.50;1.00
9824;DHT22;4951;50.778;7.196;2022-07-23T03:42:31;17.50;1.00
9824;DHT22;4951;50.778;7.196;2022-07-23T03:45:07;17.40;1.00
9824;DHT22;4951;50.778;7.196;2022-07-23T03:47:39;17.40;1.00
9824;DHT22;4951;50.778;7.196;2022-07-23T03:50:08;17.40;1.00
9824;DHT22;4951;50.778;7.196;2022-07-23T03:52:38;17.30;1.00
9824;DHT22;4951;50.778;7.196;2022-07-23T03:55:09;17.30;1.00
9824;DHT22;4951;50.778;7.196;2022-07-23T03:57:39;17.30;1.00
9824;DHT22;4951;50.778;7.196;2022-07-23T04:00:26;17.20;1.00
9824;DHT22;4951;50.778;7.196;2022-07-23T04:03:06;17.20;1.00
9824;DHT22;4951;50.778;7.196;2022-07-23T04:05:38;17.10;1.00
9824;DHT22;4951;50.778;7.196;2022-07-23T04:08:15;17.10;1.00
9824;DHT22;4951;50.778;7.196;2022-07-23T04:10:50;17.10;1.00
9824;DHT22;4951;50.778;7.196;2022-07-23T04:13:26;17.00;1.00
9824;DHT22;4951;50.778;7.196;2022-07-23T04:15:57;17.00;1.00
9824;DHT22;4951;50.778;7.196;2022-07-23T04:18:27;17.00;1.00
9824;DHT22;4951;50.778;7.196;2022-07-23T04:21:08;17.00;1.00
9824;DHT22;4951;50.778;7.196;2022-07-23T04:23:38;17.00;1.00
9824;DHT22;4951;50.778;7.196;2022-07-23T04:26:09;17.00;1.00
9824;DHT22;4951;50.778;7.196;2022-07-23T04:28:38;17.00;1.00
9824;DHT22;4951;50.778;7.196;2022-07-23T04:31:09;17.00;12.10
9824;DHT22;4951;50.778;7.196;2022-07-23T04:33:39;17.00;19.40
9824;DHT22;4951;50.778;7.196;2022-07-23T04:36:08;17.00;16.80
9824;DHT22;4951;50.778;7.196;2022-07-23T04:38:38;17.00;15.50
9824;DHT22;4951;50.778;7.196;2022-07-23T04:41:20;17.00;13.30
9824;DHT22;4951;50.778;7.196;2022-07-23T04:44:03;17.00;20.80
9824;DHT22;4951;50.778;7.196;2022-07-23T04:46:31;17.00;44.50
9824;DHT22;4951;50.778;7.196;2022-07-23T04:49:01;17.10;50.40
9824;DHT22;4951;50.778;7.196;2022-07-23T04:51:29;17.00;78.60
9824;DHT22;4951;50.778;7.196;2022-07-23T04:53:59;17.00;99.90
9824;DHT22;4951;50.778;7.196;2022-07-23T04:56:30;17.00;99.90
9824;DHT22;4951;50.778;7.196;2022-07-23T04:59:19;17.00;99.90
9824;DHT22;4951;50.778;7.196;2022-07-23T05:01:52;17.00;99.90
9824;DHT22;4951;50.778;7.196;2022-07-23T05:04:39;17.00;99.90
9824;DHT22;4951;50.778;7.196;2022-07-23T05:07:08;17.00;99.90
9824;DHT22;4951;50.778;7.196;2022-07-23T05:09:36;17.00;99.90
9824;DHT22;4951;50.778;7.196;2022-07-23T05:12:06;17.00;99.90
9824;DHT22;4951;50.778;7.196;2022-07-23T05:14:36;17.00;99.90
9824;DHT22;4951;50.778;7.196;2022-07-23T05:17:05;17.00;99.90
9824;DHT22;4951;50.778;7.196;2022-07-23T05:19:39;17.00;99.90
9824;DHT22;4951;50.778;7.196;2022-07-23T05:22:07;17.10;99.90
9824;DHT22;4951;50.778;7.196;2022-07-23T05:24:36;17.20;99.90
9824;DHT22;4951;50.778;7.196;2022-07-23T05:27:06;17.20;99.90
9824;DHT22;4951;50.778;7.196;2022-07-23T05:29:37;17.30;99.90
9824;DHT22;4951;50.778;7.196;2022-07-23T05:32:05;17.40;99.90
9824;DHT22;4951;50.778;7.196;2022-07-23T05:34:40;17.50;99.90
9824;DHT22;4951;50.778;7.196;2022-07-23T05:37:15;17.60;99.90
9824;DHT22;4951;50.778;7.196;2022-07-23T05:39:43;17.80;99.90
9824;DHT22;4951;50.778;7.196;2022-07-23T05:42:11;17.90;94.60
9824;DHT22;4951;50.778;7.196;2022-07-23T05:44:43;18.00;59.00
9824;DHT22;4951;50.778;7.196;2022-07-23T05:47:21;18.00;34.30
9824;DHT22;4951;50.778;7.196;2022-07-23T05:49:50;18.10;15.80
9824;DHT22;4951;50.778;7.196;2022-07-23T05:52:32;18.20;1.00
9824;DHT22;4951;50.778;7.196;2022-07-23T05:55:30;18.20;1.00
9824;DHT22;4951;50.778;7.196;2022-07-23T05:58:00;18.20;1.00
9824;DHT22;4951;50.778;7.196;2022-07-23T06:00:31;18.30;1.00
9824;DHT22;4951;50.778;7.196;2022-07-23T06:03:01;18.30;1.00
9824;DHT22;4951;50.778;7.196;2022-07-23T06:05:30;18.40;1.00
9824;DHT22;4951;50.778;7.196;2022-07-23T06:07:58;18.40;1.00
9824;DHT22;4951;50.778;7.196;2022-07-23T06:10:28;18.40;1.00
9824;DHT22;4951;50.778;7.196;2022-07-23T06:12:59;18.40;1.00
9824;DHT22;4951;50.778;7.196;2022-07-23T06:15:28;18.30;1.00
9824;DHT22;4951;50.778;7.196;2022-07-23T06:18:02;18.20;1.00
9824;DHT22;4951;50.778;7.196;2022-07-23T06:20:30;18.20;1.00
9824;DHT22;4951;50.778;7.196;2022-07-23T06:22:59;18.20;1.00
9824;DHT22;4951;50.778;7.196;2022-07-23T06:25:33;18.10;1.00
9824;DHT22;4951;50.778;7.196;2022-07-23T06:28:01;18.10;1.00
9824;DHT22;4951;50.778;7.196;2022-07-23T06:30:30;18.20;1.00
9824;DHT22;4951;50.778;7.196;2022-07-23T06:33:01;18.30;1.00
9824;DHT22;4951;50.778;7.196;2022-07-23T06:35:30;18.40;1.00
9824;DHT22;4951;50.778;7.196;2022-07-23T06:37:59;18.50;1.00
9824;DHT22;4951;50.778;7.196;2022-07-23T06:40:30;18.60;1.00
9824;DHT22;4951;50.778;7.196;2022-07-23T06:42:57;18.70;1.00
9824;DHT22;4951;50.778;7.196;2022-07-23T06:45:29;18.90;1.00
9824;DHT22;4951;50.778;7.196;2022-07-23T06:48:07;19.00;1.00
9824;DHT22;4951;50.778;7.196;2022-07-23T06:50:37;19.00;1.00
9824;DHT22;4951;50.778;7.196;2022-07-23T06:53:10;19.00;1.00
9824;DHT22;4951;50.778;7.196;2022-07-23T06:55:52;19.00;1.00
9824;DHT22;4951;50.778;7.196;2022-07-23T06:58:26;19.10;1.00
9824;DHT22;4951;50.778;7.196;2022-07-23T07:01:11;19.10;1.00
9824;DHT22;4951;50.778;7.196;2022-07-23T07:03:42;19.20;1.00
9824;DHT22;4951;50.778;7.196;2022-07-23T07:06:10;19.30;1.00
9824;DHT22;4951;50.778;7.196;2022-07-23T07:08:41;19.40;1.00
9824;DHT22;4951;50.778;7.196;2022-07-23T07:11:11;19.40;1.00
9824;DHT22;4951;50.778;7.196;2022-07-23T07:13:39;19.50;1.00
9824;DHT22;4951;50.778;7.196;2022-07-23T07:16:08;19.50;1.00
9824;DHT22;4951;50.778;7.196;2022-07-23T07:18:35;19.60;1.00
9824;DHT22;4951;50.778;7.196;2022-07-23T07:21:05;19.70;1.00
9824;DHT22;4951;50.778;7.196;2022-07-23T07:23:34;19.80;1.00
9824;DHT22;4951;50.778;7.196;2022-07-23T07:26:03;19.80;1.00
9824;DHT22;4951;50.778;7.196;2022-07-23T07:28:31;19.90;1.00
9824;DHT22;4951;50.778;7.196;2022-07-23T07:31:02;20.00;99.90
9824;DHT22;4951;50.778;7.196;2022-07-23T07:33:30;20.00;99.90
9824;DHT22;4951;50.778;7.196;2022-07-23T07:35:57;19.90;99.90
9824;DHT22;4951;50.778;7.196;2022-07-23T07:38:28;19.90;99.90
9824;DHT22;4951;50.778;7.196;2022-07-23T07:40:57;19.90;99.90
9824;DHT22;4951;50.778;7.196;2022-07-23T07:43:27;20.00;99.90
9824;DHT22;4951;50.778;7.196;2022-07-23T07:45:56;20.10;99.90
9824;DHT22;4951;50.778;7.196;2022-07-23T07:48:28;20.30;99.90
9824;DHT22;4951;50.778;7.196;2022-07-23T07:51:20;20.40;1.00
9824;DHT22;4951;50.778;7.196;2022-07-23T07:54:02;20.30;1.00
9824;DHT22;4951;50.778;7.196;2022-07-23T07:56:30;20.40;1.00
9824;DHT22;4951;50.778;7.196;2022-07-23T07:58:57;20.40;1.00
9824;DHT22;4951;50.778;7.196;2022-07-23T08:01:30;20.40;1.00
9824;DHT22;4951;50.778;7.196;2022-07-23T08:04:00;20.40;1.00
9824;DHT22;4951;50.778;7.196;2022-07-23T08:06:33;20.40;1.00
9824;DHT22;4951;50.778;7.196;2022-07-23T08:09:05;20.40;1.00
9824;DHT22;4951;50.778;7.196;2022-07-23T08:11:35;20.40;1.00
9824;DHT22;4951;50.778;7.196;2022-07-23T08:14:03;20.50;1.00
9824;DHT22;4951;50.778;7.196;2022-07-23T08:16:32;20.60;1.00
9824;DHT22;4951;50.778;7.196;2022-07-23T08:19:04;20.60;1.00
9824;DHT22;4951;50.778;7.196;2022-07-23T08:21:33;20.60;1.00
9824;DHT22;4951;50.778;7.196;2022-07-23T08:24:05;20.70;1.00
9824;DHT22;4951;50.778;7.196;2022-07-23T08:26:33;20.70;1.00
9824;DHT22;4951;50.778;7.196;2022-07-23T08:29:04;20.80;1.00
9824;DHT22;4951;50.778;7.196;2022-07-23T08:31:32;20.90;1.00
9824;DHT22;4951;50.778;7.196;2022-07-23T08:34:00;20.90;1.00
9824;DHT22;4951;50.778;7.196;2022-07-23T08:36:29;21.00;1.00
9824;DHT22;4951;50.778;7.196;2022-07-23T08:39:05;21.10;1.00
9824;DHT22;4951;50.778;7.196;2022-07-23T08:41:34;21.20;1.00
9824;DHT22;4951;50.778;7.196;2022-07-23T08:44:07;21.30;1.00
9824;DHT22;4951;50.778;7.196;2022-07-23T08:46:40;21.30;1.00
9824;DHT22;4951;50.778;7.196;2022-07-23T08:49:09;21.30;1.00
9824;DHT22;4951;50.778;7.196;2022-07-23T08:51:37;21.20;1.00
9824;DHT22;4951;50.778;7.196;2022-07-23T08:54:06;21.30;1.00
9824;DHT22;4951;50.778;7.196;2022-07-23T08:56:42;21.30;1.00
9824;DHT22;4951;50.778;7.196;2022-07-23T08:59:11;21.30;1.00
9824;DHT22;4951;50.778;7.196;2022-07-23T09:01:42;21.40;1.00
9824;DHT22;4951;50.778;7.196;2022-07-23T09:04:15;21.60;1.00
9824;DHT22;4951;50.778;7.196;2022-07-23T09:06:44;21.70;1.00
9824;DHT22;4951;50.778;7.196;2022-07-23T09:09:19;21.70;1.00
9824;DHT22;4951;50.778;7.196;2022-07-23T09:12:03;21.80;1.00
9824;DHT22;4951;50.778;7.196;2022-07-23T09:14:39;21.80;1.00
9824;DHT22;4951;50.778;7.196;2022-07-23T09:17:11;21.80;1.00
9824;DHT22;4951;50.778;7.196;2022-07-23T09:19:45;21.80;1.00
9824;DHT22;4951;50.778;7.196;2022-07-23T09:22:19;21.80;1.00
9824;DHT22;4951;50.778;7.196;2022-07-23T09:25:07;21.80;1.00
9824;DHT22;4951;50.778;7.196;2022-07-23T09:27:50;21.80;1.00
9824;DHT22;4951;50.778;7.196;2022-07-23T09:30:23;21.80;1.00
9824;DHT22;4951;50.778;7.196;2022-07-23T09:33:07;21.80;1.00
9824;DHT22;4951;50.778;7.196;2022-07-23T09:35:47;21.80;1.00
9824;DHT22;4951;50.778;7.196;2022-07-23T09:38:16;21.90;1.00
9824;DHT22;4951;50.778;7.196;2022-07-23T09:41:06;22.00;1.00
9824;DHT22;4951;50.778;7.196;2022-07-23T09:43:44;22.00;1.00
9824;DHT22;4951;50.778;7.196;2022-07-23T09:46:26;22.00;1.00
9824;DHT22;4951;50.778;7.196;2022-07-23T09:48:58;22.00;1.00
9824;DHT22;4951;50.778;7.196;2022-07-23T09:51:44;22.10;1.00
9824;DHT22;4951;50.778;7.196;2022-07-23T09:54:27;22.20;1.00
9824;DHT22;4951;50.778;7.196;2022-07-23T09:57:02;22.20;1.00
9824;DHT22;4951;50.778;7.196;2022-07-23T09:59:33;22.30;1.00
9824;DHT22;4951;50.778;7.196;2022-07-23T10:02:04;22.40;1.00
9824;DHT22;4951;50.778;7.196;2022-07-23T10:04:39;22.50;1.00
9824;DHT22;4951;50.778;7.196;2022-07-23T10:07:18;22.50;1.00
9824;DHT22;4951;50.778;7.196;2022-07-23T10:10:10;22.60;1.00
9824;DHT22;4951;50.778;7.196;2022-07-23T10:13:16;22.50;1.00
9824;DHT22;4951;50.778;7.196;2022-07-23T10:15:59;22.60;1.00
9824;DHT22;4951;50.778;7.196;2022-07-23T10:18:47;22.60;1.00
9824;DHT22;4951;50.778;7.196;2022-07-23T10:21:34;22.70;1.00
9824;DHT22;4951;50.778;7.196;2022-07-23T10:24:12;22.90;1.00
9824;DHT22;4951;50.778;7.196;2022-07-23T10:26:52;23.00;1.00
9824;DHT22;4951;50.778;7.196;2022-07-23T10:29:39;23.00;1.00
9824;DHT22;4951;50.778;7.196;2022-07-23T10:32:20;23.10;1.00
9824;DHT22;4951;50.778;7.196;2022-07-23T10:34:58;23.20;1.00
9824;DHT22;4951;50.778;7.196;2022-07-23T10:37:32;23.30;1.00
9824;DHT22;4951;50.778;7.196;2022-07-23T10:40:11;23.30;1.00
9824;DHT22;4951;50.778;7.196;2022-07-23T10:42:43;23.40;1.00
9824;DHT22;4951;50.778;7.196;2022-07-23T10:45:31;23.50;1.00
9824;DHT22;4951;50.778;7.196;2022-07-23T10:48:16;23.50;1.00
9824;DHT22;4951;50.778;7.196;2022-07-23T10:51:08;23.40;1.00
9824;DHT22;4951;50.778;7.196;2022-07-23T10:53:55;23.40;1.00
9824;DHT22;4951;50.778;7.196;2022-07-23T10:57:04;23.40;1.00
9824;DHT22;4951;50.778;7.196;2022-07-23T11:02:49;23.60;1.00
9824;DHT22;4951;50.778;7.196;2022-07-23T11:05:20;23.60;1.00
9824;DHT22;4951;50.778;7.196;2022-07-23T11:08:24;23.70;1.00
9824;DHT22;4951;50.778;7.196;2022-07-23T11:10:55;23.70;1.00
9824;DHT22;4951;50.778;7.196;2022-07-23T11:13:48;23.70;1.00
9824;DHT22;4951;50.778;7.196;2022-07-23T11:16:29;23.80;1.00
9824;DHT22;4951;50.778;7.196;2022-07-23T11:19:08;23.80;1.00
9824;DHT22;4951;50.778;7.196;2022-07-23T11:21:46;23.80;1.00
9824;DHT22;4951;50.778;7.196;2022-07-23T11:24:20;24.00;1.00
9824;DHT22;4951;50.778;7.196;2022-07-23T11:27:03;24.20;1.00
9824;DHT22;4951;50.778;7.196;2022-07-23T11:29:48;24.30;1.00
9824;DHT22;4951;50.778;7.196;2022-07-23T11:32:34;24.40;1.00
9824;DHT22;4951;50.778;7.196;2022-07-23T11:35:24;24.40;1.00
9824;DHT22;4951;50.778;7.196;2022-07-23T11:37:56;24.50;99.90
9824;DHT22;4951;50.778;7.196;2022-07-23T11:40:29;24.50;1.00
9824;DHT22;4951;50.778;7.196;2022-07-23T11:42:59;24.60;1.00
9824;DHT22;4951;50.778;7.196;2022-07-23T11:45:33;24.70;99.90
9824;DHT22;4951;50.778;7.196;2022-07-23T11:48:02;24.80;99.90
9824;DHT22;4951;50.778;7.196;2022-07-23T11:50:40;24.80;99.90
9824;DHT22;4951;50.778;7.196;2022-07-23T11:53:08;24.90;99.90
9824;DHT22;4951;50.778;7.196;2022-07-23T11:55:37;24.90;99.90
9824;DHT22;4951;50.778;7.196;2022-07-23T11:58:05;25.00;99.90
9824;DHT22;4951;50.778;7.196;2022-07-23T12:00:33;25.00;99.90
9824;DHT22;4951;50.778;7.196;2022-07-23T12:03:03;24.90;99.90
9824;DHT22;4951;50.778;7.196;2022-07-23T12:05:34;24.90;99.90
9824;DHT22;4951;50.778;7.196;2022-07-23T12:08:08;25.00;99.90
9824;DHT22;4951;50.778;7.196;2022-07-23T12:10:39;25.10;99.90
9824;DHT22;4951;50.778;7.196;2022-07-23T12:13:10;25.10;99.90
9824;DHT22;4951;50.778;7.196;2022-07-23T12:15:47;25.10;99.90
9824;DHT22;4951;50.778;7.196;2022-07-23T12:18:35;25.20;99.90
9824;DHT22;4951;50.778;7.196;2022-07-23T12:21:04;25.30;99.90
9824;DHT22;4951;50.778;7.196;2022-07-23T12:23:34;25.30;99.90
9824;DHT22;4951;50.778;7.196;2022-07-23T12:26:05;25.40;99.90
9824;DHT22;4951;50.778;7.196;2022-07-23T12:28:34;25.40;99.90
9824;DHT22;4951;50.778;7.196;2022-07-23T12:31:04;25.40;99.90
9824;DHT22;4951;50.778;7.196;2022-07-23T12:33:33;25.60;99.90
9824;DHT22;4951;50.778;7.196;2022-07-23T12:36:04;25.70;99.90
9824;DHT22;4951;50.778;7.196;2022-07-23T12:38:41;25.80;99.90
9824;DHT22;4951;50.778;7.196;2022-07-23T12:41:11;26.00;99.90
9824;DHT22;4951;50.778;7.196;2022-07-23T12:43:41;26.20;99.90
9824;DHT22;4951;50.778;7.196;2022-07-23T12:46:11;26.30;99.90
9824;DHT22;4951;50.778;7.196;2022-07-23T12:48:50;26.40;99.90
9824;DHT22;4951;50.778;7.196;2022-07-23T12:51:23;26.50;99.90
9824;DHT22;4951;50.778;7.196;2022-07-23T12:53:54;26.50;99.90
9824;DHT22;4951;50.778;7.196;2022-07-23T12:56:29;26.50;99.90
9824;DHT22;4951;50.778;7.196;2022-07-23T12:58:59;26.50;99.90
9824;DHT22;4951;50.778;7.196;2022-07-23T13:01:36;26.70;99.90
9824;DHT22;4951;50.778;7.196;2022-07-23T13:04:06;26.90;99.90
9824;DHT22;4951;50.778;7.196;2022-07-23T13:06:35;27.00;99.90
9824;DHT22;4951;50.778;7.196;2022-07-23T13:09:15;27.10;99.90
9824;DHT22;4951;50.778;7.196;2022-07-23T13:11:45;27.30;99.90
9824;DHT22;4951;50.778;7.196;2022-07-23T13:14:14;27.40;99.90
9824;DHT22;4951;50.778;7.196;2022-07-23T13:16:56;27.70;99.90
9824;DHT22;4951;50.778;7.196;2022-07-23T13:19:25;27.90;99.90
9824;DHT22;4951;50.778;7.196;2022-07-23T13:21:54;28.20;99.90
9824;DHT22;4951;50.778;7.196;2022-07-23T13:24:23;28.50;99.90
9824;DHT22;4951;50.778;7.196;2022-07-23T13:26:50;28.70;99.90
9824;DHT22;4951;50.778;7.196;2022-07-23T13:29:19;28.90;99.90
9824;DHT22;4951;50.778;7.196;2022-07-23T13:31:47;29.20;99.90
9824;DHT22;4951;50.778;7.196;2022-07-23T13:34:15;29.50;99.90
9824;DHT22;4951;50.778;7.196;2022-07-23T13:36:45;29.70;99.90
9824;DHT22;4951;50.778;7.196;2022-07-23T13:39:13;30.10;99.90
9824;DHT22;4951;50.778;7.196;2022-07-23T13:41:45;30.40;99.90
9824;DHT22;4951;50.778;7.196;2022-07-23T13:44:12;30.60;99.90
9824;DHT22;4951;50.778;7.196;2022-07-23T13:46:42;30.90;99.90
9824;DHT22;4951;50.778;7.196;2022-07-23T13:49:10;31.10;99.90
9824;DHT22;4951;50.778;7.196;2022-07-23T13:51:52;31.30;99.90
9824;DHT22;4951;50.778;7.196;2022-07-23T13:54:21;31.60;99.90
9824;DHT22;4951;50.778;7.196;2022-07-23T13:56:50;31.80;99.90
9824;DHT22;4951;50.778;7.196;2022-07-23T13:59:19;31.90;99.90
9824;DHT22;4951;50.778;7.196;2022-07-23T14:01:46;32.00;99.90
9824;DHT22;4951;50.778;7.196;2022-07-23T14:04:17;32.20;99.90
9824;DHT22;4951;50.778;7.196;2022-07-23T14:06:47;32.30;99.90
9824;DHT22;4951;50.778;7.196;2022-07-23T14:09:22;32.30;99.90
9824;DHT22;4951;50.778;7.196;2022-07-23T14:11:52;32.30;99.90
9824;DHT22;4951;50.778;7.196;2022-07-23T14:14:21;32.10;99.90
9824;DHT22;4951;50.778;7.196;2022-07-23T14:16:52;31.90;99.90
9824;DHT22;4951;50.778;7.196;2022-07-23T14:19:24;32.00;99.90
9824;DHT22;4951;50.778;7.196;2022-07-23T14:21:52;32.10;99.90
9824;DHT22;4951;50.778;7.196;2022-07-23T14:24:21;32.30;99.90
9824;DHT22;4951;50.778;7.196;2022-07-23T14:26:49;32.20;99.90
9824;DHT22;4951;50.778;7.196;2022-07-23T14:29:18;32.30;99.90
9824;DHT22;4951;50.778;7.196;2022-07-23T14:31:49;32.30;99.90
9824;DHT22;4951;50.778;7.196;2022-07-23T14:34:17;32.40;99.90
9824;DHT22;4951;50.778;7.196;2022-07-23T14:36:46;32.50;99.90
9824;DHT22;4951;50.778;7.196;2022-07-23T14:39:14;32.70;99.90
9824;DHT22;4951;50.778;7.196;2022-07-23T14:41:44;32.90;99.90
9824;DHT22;4951;50.778;7.196;2022-07-23T14:44:21;33.10;99.90
9824;DHT22;4951;50.778;7.196;2022-07-23T14:46:50;33.10;99.90
9824;DHT22;4951;50.778;7.196;2022-07-23T14:49:20;33.10;99.90
9824;DHT22;4951;50.778;7.196;2022-07-23T14:51:49;33.20;99.90
9824;DHT22;4951;50.778;7.196;2022-07-23T14:54:16;33.20;99.90
9824;DHT22;4951;50.778;7.196;2022-07-23T14:56:44;33.00;99.90
9824;DHT22;4951;50.778;7.196;2022-07-23T14:59:13;32.90;99.90
9824;DHT22;4951;50.778;7.196;2022-07-23T15:01:45;32.70;99.90
9824;DHT22;4951;50.778;7.196;2022-07-23T15:04:12;32.70;99.90
9824;DHT22;4951;50.778;7.196;2022-07-23T15:06:43;32.60;99.90
9824;DHT22;4951;50.778;7.196;2022-07-23T15:09:11;32.70;99.90
9824;DHT22;4951;50.778;7.196;2022-07-23T15:11:41;32.80;99.90
9824;DHT22;4951;50.778;7.196;2022-07-23T15:14:13;32.70;99.90
9824;DHT22;4951;50.778;7.196;2022-07-23T15:16:47;32.60;99.90
9824;DHT22;4951;50.778;7.196;2022-07-23T15:19:17;32.60;99.90
9824;DHT22;4951;50.778;7.196;2022-07-23T15:21:47;32.50;99.90
9824;DHT22;4951;50.778;7.196;2022-07-23T15:24:16;32.40;99.90
9824;DHT22;4951;50.778;7.196;2022-07-23T15:27:03;32.70;99.90
9824;DHT22;4951;50.778;7.196;2022-07-23T15:29:33;33.00;99.90
9824;DHT22;4951;50.778;7.196;2022-07-23T15:32:05;33.10;99.90
9824;DHT22;4951;50.778;7.196;2022-07-23T15:34:42;33.10;99.90
9824;DHT22;4951;50.778;7.196;2022-07-23T15:37:10;32.90;99.90
9824;DHT22;4951;50.778;7.196;2022-07-23T15:39:39;32.70;99.90
9824;DHT22;4951;50.778;7.196;2022-07-23T15:42:07;32.50;99.90
9824;DHT22;4951;50.778;7.196;2022-07-23T15:44:36;32.40;99.90
9824;DHT22;4951;50.778;7.196;2022-07-23T15:47:20;32.50;99.90
9824;DHT22;4951;50.778;7.196;2022-07-23T15:49:53;32.50;99.90
9824;DHT22;4951;50.778;7.196;2022-07-23T15:52:30;32.50;99.90
9824;DHT22;4951;50.778;7.196;2022-07-23T15:55:00;32.30;99.90
9824;DHT22;4951;50.778;7.196;2022-07-23T15:57:32;32.20;99.90
9824;DHT22;4951;50.778;7.196;2022-07-23T16:00:03;32.40;99.90
9824;DHT22;4951;50.778;7.196;2022-07-23T16:02:38;32.60;99.90
9824;DHT22;4951;50.778;7.196;2022-07-23T16:05:07;32.60;99.90
9824;DHT22;4951;50.778;7.196;2022-07-23T16:08:04;32.40;99.90
9824;DHT22;4951;50.778;7.196;2022-07-23T16:10:35;32.00;99.90
9824;DHT22;4951;50.778;7.196;2022-07-23T16:13:13;31.70;99.90
9824;DHT22;4951;50.778;7.196;2022-07-23T16:16:01;31.60;99.90
9824;DHT22;4951;50.778;7.196;2022-07-23T16:18:32;31.60;99.90
9824;DHT22;4951;50.778;7.196;2022-07-23T16:21:01;31.50;99.90
9824;DHT22;4951;50.778;7.196;2022-07-23T16:23:30;31.20;99.90
9824;DHT22;4951;50.778;7.196;2022-07-23T16:26:01;30.90;99.90
9824;DHT22;4951;50.778;7.196;2022-07-23T16:28:32;30.70;99.90
9824;DHT22;4951;50.778;7.196;2022-07-23T16:31:23;30.30;99.90
9824;DHT22;4951;50.778;7.196;2022-07-23T16:34:12;30.10;99.90
9824;DHT22;4951;50.778;7.196;2022-07-23T16:36:43;29.60;99.90
9824;DHT22;4951;50.778;7.196;2022-07-23T16:39:20;29.20;99.90
9824;DHT22;4951;50.778;7.196;2022-07-23T16:42:06;28.80;99.90
9824;DHT22;4951;50.778;7.196;2022-07-23T16:44:45;28.40;99.90
9824;DHT22;4951;50.778;7.196;2022-07-23T16:47:14;28.10;99.90
9824;DHT22;4951;50.778;7.196;2022-07-23T16:49:43;27.90;99.90
9824;DHT22;4951;50.778;7.196;2022-07-23T16:52:11;27.70;99.90
9824;DHT22;4951;50.778;7.196;2022-07-23T16:54:41;27.60;99.90